createdAt,value
2022-07-30T00:01:53.265Z,12.73
2022-07-30T00:04:20.581Z,11.77
2022-07-30T00:06:47.559Z,11.37
2022-07-30T00:09:14.581Z,10.50
2022-07-30T00:11:41.797Z,9.83
2022-07-30T00:14:08.955Z,10.57
2022-07-30T00:16:36.335Z,8.93
2022-07-30T00:19:03.852Z,9.17
2022-07-30T00:21:38.831Z,8.57
2022-07-30T00:24:08.830Z,7.83
2022-07-30T00:26:35.917Z,7.73
2022-07-30T00:29:03.429Z,6.70
2022-07-30T00:31:30.412Z,6.00
2022-07-30T00:33:57.521Z,5.17
2022-07-30T00:36:24.725Z,4.80
2022-07-30T00:38:51.747Z,4.27
2022-07-30T00:41:18.772Z,7.13
2022-07-30T00:43:45.726Z,4.00
2022-07-30T00:46:15.114Z,3.37
2022-07-30T00:48:42.614Z,3.40
2022-07-30T00:51:10.683Z,3.03
2022-07-30T00:53:38.298Z,2.40
2022-07-30T00:56:05.858Z,5.27
2022-07-30T00:58:33.054Z,2.80
2022-07-30T01:01:00.097Z,3.10
2022-07-30T01:03:27.220Z,2.90
2022-07-30T01:05:54.236Z,3.10
2022-07-30T01:08:21.198Z,2.70
2022-07-30T01:10:48.239Z,2.70
2022-07-30T01:13:15.318Z,2.70
2022-07-30T01:15:42.946Z,2.70
2022-07-30T01:18:12.953Z,3.50
2022-07-30T01:21:02.444Z,2.90
2022-07-30T01:23:43.393Z,3.03
2022-07-30T01:26:14.582Z,2.50
2022-07-30T01:28:45.471Z,3.60
2022-07-30T01:31:15.160Z,2.83
2022-07-30T01:33:45.618Z,3.60
2022-07-30T01:36:15.631Z,2.97
2022-07-30T01:38:45.497Z,2.70
2022-07-30T01:41:15.460Z,3.07
2022-07-30T01:43:45.334Z,2.93
2022-07-30T01:46:14.206Z,3.67
2022-07-30T01:48:44.310Z,4.43
2022-07-30T01:51:13.912Z,4.20
2022-07-30T01:53:43.044Z,3.23
2022-07-30T01:56:16.604Z,3.40
2022-07-30T01:58:46.738Z,3.20
2022-07-30T02:01:14.212Z,2.93
2022-07-30T02:03:41.490Z,3.77
2022-07-30T02:06:21.776Z,3.30
2022-07-30T02:08:58.272Z,2.80
2022-07-30T02:11:44.277Z,2.90
2022-07-30T02:14:29.164Z,3.33
2022-07-30T02:16:59.313Z,6.30
2022-07-30T02:19:36.165Z,3.40
2022-07-30T02:22:11.272Z,4.23
2022-07-30T02:24:43.250Z,3.70
2022-07-30T02:27:18.270Z,3.40
2022-07-30T02:29:47.840Z,3.80
2022-07-30T02:32:20.302Z,4.50
2022-07-30T02:34:50.279Z,3.93
2022-07-30T02:37:42.895Z,4.00
2022-07-30T02:40:14.408Z,4.70
2022-07-30T02:42:44.515Z,4.10
2022-07-30T02:45:13.394Z,4.97
2022-07-30T02:47:42.770Z,4.40
2022-07-30T02:50:10.891Z,3.97
2022-07-30T02:52:40.594Z,4.70
2022-07-30T02:55:11.021Z,4.97
2022-07-30T02:57:43.313Z,4.70
2022-07-30T03:00:12.310Z,5.73
2022-07-30T03:02:43.509Z,4.37
2022-07-30T03:05:14.146Z,4.80
2022-07-30T03:07:42.247Z,4.40
2022-07-30T03:10:11.581Z,5.20
2022-07-30T03:12:42.730Z,4.53
2022-07-30T03:15:10.349Z,4.53
2022-07-30T03:17:42.270Z,4.60
2022-07-30T03:20:12.129Z,5.20
2022-07-30T03:22:46.904Z,7.03
2022-07-30T03:25:16.969Z,4.53
2022-07-30T03:27:45.354Z,5.37
2022-07-30T03:30:13.503Z,5.20
2022-07-30T03:32:42.865Z,5.00
2022-07-30T03:35:17.041Z,6.20
2022-07-30T03:37:45.183Z,6.00
2022-07-30T03:40:14.166Z,5.40
2022-07-30T03:42:41.721Z,5.97
2022-07-30T03:45:09.767Z,5.30
2022-07-30T03:47:39.627Z,6.20
2022-07-30T03:50:07.361Z,6.47
2022-07-30T03:52:37.143Z,6.10
2022-07-30T03:55:10.357Z,6.17
2022-07-30T03:57:38.363Z,6.27
2022-07-30T04:00:08.450Z,6.90
2022-07-30T04:02:46.612Z,6.77
2022-07-30T04:05:14.911Z,6.77
2022-07-30T04:07:44.767Z,6.40
2022-07-30T04:10:13.521Z,6.90
2022-07-30T04:12:40.630Z,6.80
2022-07-30T04:16:05.715Z,6.70
2022-07-30T04:18:01.580Z,6.57
2022-07-30T04:20:34.754Z,6.20
2022-07-30T04:23:02.978Z,6.60
2022-07-30T04:25:30.990Z,6.47
2022-07-30T04:28:03.693Z,6.00
2022-07-30T04:30:35.119Z,5.70
2022-07-30T04:33:04.505Z,5.47
2022-07-30T04:35:51.520Z,4.77
2022-07-30T04:38:20.291Z,5.27
2022-07-30T04:40:48.504Z,5.80
2022-07-30T04:43:16.215Z,5.60
2022-07-30T04:45:43.415Z,5.10
2022-07-30T04:48:10.498Z,5.40
2022-07-30T04:50:41.607Z,5.20
2022-07-30T04:53:09.920Z,4.70
2022-07-30T04:55:42.162Z,4.80
2022-07-30T04:58:12.208Z,5.50
2022-07-30T05:00:41.554Z,5.90
2022-07-30T05:03:11.996Z,7.20
2022-07-30T05:05:40.896Z,5.53
2022-07-30T05:08:08.132Z,5.80
2022-07-30T05:10:35.172Z,5.60
2022-07-30T05:13:02.368Z,5.97
2022-07-30T05:15:36.241Z,6.43
2022-07-30T05:18:04.730Z,8.90
2022-07-30T05:20:31.714Z,5.33
2022-07-30T05:22:58.875Z,6.20
2022-07-30T05:25:26.223Z,5.73
2022-07-30T05:27:53.310Z,6.20
2022-07-30T05:30:27.368Z,7.40
2022-07-30T05:32:56.096Z,6.10
2022-07-30T05:35:23.498Z,5.77
2022-07-30T05:37:50.465Z,5.90
2022-07-30T05:40:17.484Z,5.83
2022-07-30T05:42:45.060Z,9.60
2022-07-30T05:45:12.088Z,5.70
2022-07-30T05:47:39.079Z,5.20
2022-07-30T05:50:06.494Z,5.60
2022-07-30T05:52:33.841Z,5.63
2022-07-30T05:55:01.070Z,5.23
2022-07-30T05:57:28.069Z,5.67
2022-07-30T05:59:55.076Z,4.80
2022-07-30T06:02:24.277Z,4.50
2022-07-30T06:04:52.522Z,4.70
2022-07-30T06:07:19.649Z,5.10
2022-07-30T06:09:47.221Z,4.30
2022-07-30T06:12:14.674Z,4.77
2022-07-30T06:14:41.745Z,4.40
2022-07-30T06:17:08.739Z,4.20
2022-07-30T06:19:35.842Z,4.47
2022-07-30T06:22:06.881Z,4.30
2022-07-30T06:24:34.601Z,3.93
2022-07-30T06:27:02.151Z,4.50
2022-07-30T06:29:29.508Z,4.37
2022-07-30T06:31:56.513Z,4.83
2022-07-30T06:34:23.661Z,4.10
2022-07-30T06:36:51.417Z,9.80
2022-07-30T06:39:56.407Z,4.70
2022-07-30T06:42:05.580Z,4.73
2022-07-30T06:44:32.610Z,4.40
2022-07-30T06:47:05.290Z,4.20
2022-07-30T06:49:35.851Z,4.77
2022-07-30T06:52:02.992Z,4.77
2022-07-30T06:54:30.222Z,4.67
2022-07-30T06:56:57.642Z,5.37
2022-07-30T06:59:24.790Z,5.30
2022-07-30T07:01:54.536Z,4.70
2022-07-30T07:04:21.882Z,6.43
2022-07-30T07:06:48.854Z,5.37
2022-07-30T07:09:15.832Z,4.63
2022-07-30T07:11:42.845Z,5.30
2022-07-30T07:14:09.789Z,4.70
2022-07-30T07:16:36.874Z,5.23
2022-07-30T07:19:04.093Z,4.87
2022-07-30T07:21:31.198Z,5.07
2022-07-30T07:24:00.649Z,5.17
2022-07-30T07:26:27.648Z,4.60
2022-07-30T07:28:54.617Z,5.30
2022-07-30T07:32:02.582Z,5.17
2022-07-30T07:34:08.718Z,4.50
2022-07-30T07:36:36.742Z,5.10
2022-07-30T07:39:09.803Z,5.93
2022-07-30T07:41:48.464Z,4.80
2022-07-30T07:44:16.404Z,5.90
2022-07-30T07:46:43.511Z,4.47
2022-07-30T07:49:10.675Z,4.70
2022-07-30T07:51:47.245Z,6.47
2022-07-30T07:54:22.023Z,4.90
2022-07-30T07:56:57.458Z,4.53
2022-07-30T07:59:27.091Z,5.73
2022-07-30T08:02:08.097Z,5.13
2022-07-30T08:04:35.463Z,4.83
2022-07-30T08:07:03.040Z,4.77
2022-07-30T08:09:43.912Z,5.10
2022-07-30T08:12:12.528Z,5.20
2022-07-30T08:14:39.883Z,4.20
2022-07-30T08:17:07.915Z,4.83
2022-07-30T08:19:35.416Z,5.00
2022-07-30T08:22:02.417Z,4.40
2022-07-30T08:24:29.351Z,4.60
2022-07-30T08:26:56.339Z,5.20
2022-07-30T08:29:23.318Z,4.63
2022-07-30T08:31:50.393Z,4.77
2022-07-30T08:34:18.267Z,4.50
2022-07-30T08:36:45.270Z,5.20
2022-07-30T08:39:12.347Z,5.30
2022-07-30T08:41:41.807Z,6.73
2022-07-30T08:44:12.767Z,4.77
2022-07-30T08:46:46.282Z,5.00
2022-07-30T08:49:16.074Z,4.70
2022-07-30T08:51:43.821Z,4.37
2022-07-30T08:54:11.163Z,5.33
2022-07-30T08:56:38.644Z,4.50
2022-07-30T08:59:05.796Z,4.23
2022-07-30T09:01:32.769Z,4.17
2022-07-30T09:03:59.938Z,4.00
2022-07-30T09:06:27.543Z,4.43
2022-07-30T09:08:55.025Z,4.70
2022-07-30T09:11:23.118Z,4.30
2022-07-30T09:13:51.263Z,3.37
2022-07-30T09:16:23.766Z,4.50
2022-07-30T09:18:51.884Z,5.90
2022-07-30T09:21:26.178Z,4.20
2022-07-30T09:24:05.422Z,3.90
2022-07-30T09:26:51.758Z,4.00
2022-07-30T09:29:23.688Z,4.23
2022-07-30T09:32:05.858Z,4.17
2022-07-30T09:34:38.164Z,4.10
2022-07-30T09:37:19.572Z,4.57
2022-07-30T09:39:59.264Z,4.20
2022-07-30T09:42:28.963Z,4.37
2022-07-30T09:45:14.297Z,4.10
2022-07-30T09:47:48.487Z,4.73
2022-07-30T09:50:17.905Z,5.03
2022-07-30T09:53:12.072Z,4.80
2022-07-30T09:55:41.961Z,4.63
2022-07-30T09:58:12.923Z,5.00
2022-07-30T10:00:58.555Z,4.37
2022-07-30T10:03:38.485Z,5.73
2022-07-30T10:06:11.601Z,5.80
2022-07-30T10:08:52.881Z,5.27
2022-07-30T10:11:26.770Z,5.30
2022-07-30T10:13:59.923Z,5.83
2022-07-30T10:16:29.496Z,5.63
2022-07-30T10:19:00.284Z,5.47
2022-07-30T10:21:28.648Z,5.03
2022-07-30T10:24:00.315Z,5.33
2022-07-30T10:26:28.145Z,4.97
2022-07-30T10:28:55.857Z,5.63
2022-07-30T10:31:46.762Z,5.43
2022-07-30T10:34:11.972Z,5.17
2022-07-30T10:36:44.215Z,6.13
2022-07-30T10:39:17.617Z,5.10
2022-07-30T10:42:08.766Z,5.90
2022-07-30T10:44:47.532Z,6.60
2022-07-30T10:47:18.929Z,6.70
2022-07-30T10:50:12.800Z,6.60
2022-07-30T10:52:52.243Z,5.40
2022-07-30T10:55:37.181Z,4.70
2022-07-30T10:58:10.071Z,5.40
2022-07-30T11:00:52.299Z,5.83
2022-07-30T11:03:40.602Z,5.03
2022-07-30T11:06:24.590Z,5.50
2022-07-30T11:08:52.390Z,5.27
2022-07-30T11:11:59.026Z,5.13
2022-07-30T11:14:13.007Z,4.40
2022-07-30T11:16:40.261Z,4.90
2022-07-30T11:19:57.063Z,5.07
2022-07-30T11:22:29.751Z,4.87
2022-07-30T11:24:57.856Z,4.97
2022-07-30T11:27:38.941Z,3.50
2022-07-30T11:30:18.115Z,4.03
2022-07-30T11:32:50.354Z,4.53
2022-07-30T11:35:22.910Z,5.00
2022-07-30T11:38:09.142Z,4.80
2022-07-30T11:40:37.624Z,5.27
2022-07-30T11:43:18.584Z,5.40
2022-07-30T11:46:04.988Z,5.50
2022-07-30T11:48:32.995Z,5.37
2022-07-30T11:51:03.801Z,5.67
2022-07-30T11:53:31.488Z,4.90
2022-07-30T11:56:02.307Z,5.10
2022-07-30T11:58:39.989Z,5.50
2022-07-30T12:01:15.982Z,5.40
2022-07-30T12:03:45.050Z,4.80
2022-07-30T12:06:20.111Z,4.77
2022-07-30T12:08:58.274Z,4.43
2022-07-30T12:11:33.236Z,4.90
2022-07-30T12:14:02.286Z,4.73
2022-07-30T12:16:31.411Z,4.43
2022-07-30T12:19:09.684Z,4.40
2022-07-30T12:21:37.023Z,5.30
2022-07-30T12:24:10.163Z,6.43
2022-07-30T12:26:37.249Z,6.10
2022-07-30T12:29:07.487Z,5.17
2022-07-30T12:31:39.745Z,5.00
2022-07-30T12:34:26.494Z,5.53
2022-07-30T12:36:54.429Z,5.10
2022-07-30T12:39:27.012Z,5.47
2022-07-30T12:41:58.621Z,5.60
2022-07-30T12:44:44.732Z,6.00
2022-07-30T12:47:26.210Z,5.77
2022-07-30T12:49:58.541Z,8.70
2022-07-30T12:52:35.725Z,6.30
2022-07-30T12:55:05.073Z,6.30
2022-07-30T12:57:54.822Z,5.93
2022-07-30T13:00:23.202Z,6.40
2022-07-30T13:02:50.424Z,6.00
2022-07-30T13:05:17.942Z,5.60
2022-07-30T13:07:58.936Z,5.37
2022-07-30T13:10:30.713Z,6.03
2022-07-30T13:12:59.756Z,5.90
2022-07-30T13:15:26.879Z,5.60
2022-07-30T13:17:53.924Z,5.90
2022-07-30T13:20:21.230Z,6.43
2022-07-30T13:22:48.757Z,6.30
2022-07-30T13:25:15.844Z,5.53
2022-07-30T13:27:42.907Z,6.93
2022-07-30T13:30:10.557Z,5.97
2022-07-30T13:32:37.784Z,6.03
2022-07-30T13:35:05.360Z,6.20
2022-07-30T13:37:38.261Z,6.10
2022-07-30T13:40:07.306Z,5.80
2022-07-30T13:42:34.308Z,5.20
2022-07-30T13:45:01.368Z,4.50
2022-07-30T13:47:29.103Z,3.90
2022-07-30T13:49:56.090Z,3.20
2022-07-30T13:52:23.071Z,3.07
2022-07-30T13:54:52.428Z,2.60
2022-07-30T13:57:19.429Z,2.90
2022-07-30T13:59:46.602Z,2.80
2022-07-30T14:02:13.834Z,3.50
2022-07-30T14:04:40.805Z,3.90
2022-07-30T14:07:07.839Z,3.40
2022-07-30T14:09:43.347Z,3.70
2022-07-30T14:12:14.240Z,4.13
2022-07-30T14:14:41.391Z,4.73
2022-07-30T14:17:08.451Z,4.53
2022-07-30T14:19:35.485Z,3.90
2022-07-30T14:22:02.512Z,4.20
2022-07-30T14:24:29.533Z,3.90
2022-07-30T14:26:58.597Z,3.77
2022-07-30T14:29:27.441Z,3.43
2022-07-30T14:31:55.548Z,3.27
2022-07-30T14:34:23.102Z,2.50
2022-07-30T14:36:50.759Z,3.50
2022-07-30T14:39:17.794Z,2.97
2022-07-30T14:41:44.790Z,3.20
2022-07-30T14:44:13.814Z,2.97
2022-07-30T14:46:52.096Z,3.43
2022-07-30T14:49:20.725Z,2.80
2022-07-30T14:51:47.835Z,2.93
2022-07-30T14:54:14.854Z,2.93
2022-07-30T14:56:42.168Z,3.13
2022-07-30T14:59:09.309Z,3.10
2022-07-30T15:01:36.351Z,3.53
2022-07-30T15:04:04.122Z,3.10
2022-07-30T15:06:31.089Z,4.17
2022-07-30T15:08:58.195Z,4.80
2022-07-30T15:11:25.572Z,4.90
2022-07-30T15:13:52.697Z,4.10
2022-07-30T15:16:20.297Z,4.93
2022-07-30T15:18:47.350Z,4.67
2022-07-30T15:21:14.416Z,5.83
2022-07-30T15:23:41.740Z,5.10
2022-07-30T15:26:08.813Z,4.60
2022-07-30T15:28:35.743Z,4.93
2022-07-30T15:31:03.641Z,5.53
2022-07-30T15:33:30.803Z,5.67
2022-07-30T15:36:04.186Z,4.57
2022-07-30T15:38:31.179Z,3.80
2022-07-30T15:40:58.124Z,3.40
2022-07-30T15:43:25.146Z,3.80
2022-07-30T15:45:55.775Z,6.70
2022-07-30T15:48:26.519Z,5.83
2022-07-30T15:51:04.706Z,4.10
2022-07-30T15:53:33.016Z,5.17
2022-07-30T15:56:00.480Z,4.20
2022-07-30T15:58:27.989Z,5.10
2022-07-30T16:00:55.185Z,5.20
2022-07-30T16:03:22.612Z,4.97
2022-07-30T16:05:51.487Z,6.27
2022-07-30T16:08:40.060Z,5.50
2022-07-30T16:11:10.840Z,5.27
2022-07-30T16:13:38.523Z,4.93
2022-07-30T16:16:05.654Z,4.83
2022-07-30T16:18:32.779Z,2.97
2022-07-30T16:21:01.352Z,3.77
2022-07-30T16:23:36.520Z,3.93
2022-07-30T16:26:04.825Z,6.50
2022-07-30T16:28:32.359Z,3.30
2022-07-30T16:30:59.354Z,4.60
2022-07-30T16:33:26.433Z,5.77
2022-07-30T16:35:53.426Z,23.77
2022-07-30T16:38:20.902Z,7.20
2022-07-30T16:40:47.908Z,4.80
2022-07-30T16:43:16.263Z,5.33
2022-07-30T16:45:46.707Z,9.87
2022-07-30T16:48:14.027Z,5.30
2022-07-30T16:50:41.817Z,4.83
2022-07-30T16:53:13.758Z,4.47
2022-07-30T16:55:42.808Z,3.93
2022-07-30T16:58:10.758Z,4.70
2022-07-30T17:00:38.013Z,4.17
2022-07-30T17:03:05.137Z,4.37
2022-07-30T17:05:32.198Z,4.83
2022-07-30T17:07:59.216Z,3.80
2022-07-30T17:10:26.731Z,3.73
2022-07-30T17:12:57.030Z,4.27
2022-07-30T17:15:32.503Z,3.83
2022-07-30T17:18:01.647Z,4.60
2022-07-30T17:20:30.161Z,5.00
2022-07-30T17:22:57.443Z,3.60
2022-07-30T17:25:28.421Z,3.37
2022-07-30T17:27:57.184Z,3.60
2022-07-30T17:30:26.643Z,4.10
2022-07-30T17:32:53.778Z,3.57
2022-07-30T17:35:21.059Z,5.30
2022-07-30T17:37:48.136Z,3.90
2022-07-30T17:40:28.885Z,3.87
2022-07-30T17:43:04.323Z,3.63
2022-07-30T17:45:36.369Z,4.00
2022-07-30T17:48:05.174Z,4.13
2022-07-30T17:50:32.602Z,3.73
2022-07-30T17:53:03.605Z,4.50
2022-07-30T17:55:31.968Z,4.73
2022-07-30T17:57:58.949Z,4.00
2022-07-30T18:00:26.138Z,4.30
2022-07-30T18:02:53.211Z,3.80
2022-07-30T18:05:20.292Z,4.00
2022-07-30T18:07:47.248Z,4.37
2022-07-30T18:10:14.440Z,4.40
2022-07-30T18:12:49.081Z,4.73
2022-07-30T18:15:18.521Z,4.37
2022-07-30T18:17:45.935Z,4.50
2022-07-30T18:20:13.857Z,5.27
2022-07-30T18:22:41.021Z,5.13
2022-07-30T18:25:18.920Z,5.03
2022-07-30T18:27:47.136Z,4.57
2022-07-30T18:30:14.765Z,4.53
2022-07-30T18:32:41.767Z,4.77
2022-07-30T18:35:13.792Z,5.67
2022-07-30T18:37:42.162Z,4.60
2022-07-30T18:40:10.838Z,4.60
2022-07-30T18:42:37.810Z,4.17
2022-07-30T18:45:05.370Z,4.10
2022-07-30T18:47:32.421Z,11.23
2022-07-30T18:49:59.507Z,4.67
2022-07-30T18:52:26.696Z,4.03
2022-07-30T18:54:53.847Z,4.00
2022-07-30T18:57:20.959Z,5.90
2022-07-30T18:59:48.023Z,4.27
2022-07-30T19:02:15.069Z,4.03
2022-07-30T19:04:42.086Z,7.23
2022-07-30T19:07:09.190Z,4.23
2022-07-30T19:09:36.383Z,4.43
2022-07-30T19:12:06.215Z,6.53
2022-07-30T19:14:33.651Z,4.13
2022-07-30T19:17:00.664Z,4.43
2022-07-30T19:19:27.912Z,4.50
2022-07-30T19:21:55.099Z,4.73
2022-07-30T19:24:22.282Z,4.20
2022-07-30T19:26:49.359Z,5.27
2022-07-30T19:29:16.865Z,5.20
2022-07-30T19:31:43.914Z,5.53
2022-07-30T19:34:11.305Z,4.80
2022-07-30T19:36:39.658Z,4.53
2022-07-30T19:39:08.695Z,5.70
2022-07-30T19:41:40.775Z,4.60
2022-07-30T19:44:10.533Z,4.73
2022-07-30T19:46:37.865Z,4.80
2022-07-30T19:49:06.628Z,5.20
2022-07-30T19:52:10.054Z,5.97
2022-07-30T19:54:21.275Z,4.47
2022-07-30T19:56:49.218Z,4.90
2022-07-30T19:59:18.327Z,5.50
2022-07-30T20:01:45.317Z,4.50
2022-07-30T20:04:18.817Z,5.17
2022-07-30T20:06:46.259Z,6.63
2022-07-30T20:09:14.971Z,4.93
2022-07-30T20:11:43.321Z,5.60
2022-07-30T20:14:10.602Z,6.47
2022-07-30T20:16:37.800Z,5.60
2022-07-30T20:19:05.672Z,5.70
2022-07-30T20:21:56.889Z,5.53
2022-07-30T20:24:21.057Z,5.77
2022-07-30T20:26:48.322Z,5.70
2022-07-30T20:29:18.953Z,6.20
2022-07-30T20:31:46.824Z,6.23
2022-07-30T20:34:18.348Z,6.43
2022-07-30T20:36:45.334Z,5.40
2022-07-30T20:39:18.195Z,5.70
2022-07-30T20:41:45.721Z,6.10
2022-07-30T20:44:23.122Z,5.67
2022-07-30T20:46:50.709Z,5.70
2022-07-30T20:49:24.201Z,5.83
2022-07-30T20:52:02.878Z,6.67
2022-07-30T20:54:30.403Z,5.70
2022-07-30T20:56:57.641Z,8.60
2022-07-30T20:59:25.199Z,6.63
2022-07-30T21:01:52.171Z,6.10
2022-07-30T21:04:23.794Z,6.20
2022-07-30T21:06:52.657Z,6.07
2022-07-30T21:09:20.366Z,5.80
2022-07-30T21:11:50.600Z,5.43
2022-07-30T21:14:20.233Z,6.10
2022-07-30T21:16:47.919Z,5.40
2022-07-30T21:19:17.672Z,5.17
2022-07-30T21:21:48.167Z,5.50
2022-07-30T21:24:19.404Z,5.40
2022-07-30T21:26:49.022Z,5.60
2022-07-30T21:29:16.849Z,6.80
2022-07-30T21:32:01.559Z,5.37
2022-07-30T21:34:35.922Z,5.30
2022-07-30T21:37:07.977Z,6.30
2022-07-30T21:39:39.874Z,8.20
2022-07-30T21:42:08.940Z,6.30
2022-07-30T21:44:37.548Z,6.87
2022-07-30T21:47:10.004Z,5.60
2022-07-30T21:49:38.367Z,7.00
2022-07-30T21:52:06.558Z,6.40
2022-07-30T21:54:45.220Z,6.63
2022-07-30T21:57:13.070Z,8.07
2022-07-30T21:59:40.871Z,6.63
2022-07-30T22:02:15.839Z,7.30
2022-07-30T22:04:54.940Z,8.63
2022-07-30T22:07:22.170Z,7.33
2022-07-30T22:09:49.490Z,7.47
2022-07-30T22:12:18.069Z,7.13
2022-07-30T22:14:46.930Z,8.00
2022-07-30T22:17:23.446Z,8.33
2022-07-30T22:19:51.979Z,8.10
2022-07-30T22:22:27.712Z,8.07
2022-07-30T22:24:57.326Z,7.97
2022-07-30T22:27:25.608Z,8.53
2022-07-30T22:29:55.620Z,9.33
2022-07-30T22:32:24.067Z,8.93
2022-07-30T22:34:52.947Z,9.10
2022-07-30T22:37:21.522Z,9.07
2022-07-30T22:39:50.502Z,9.23
2022-07-30T22:42:24.583Z,9.43
2022-07-30T22:44:52.877Z,8.87
2022-07-30T22:47:21.394Z,9.37
2022-07-30T22:50:08.236Z,9.77
2022-07-30T22:52:40.044Z,9.33
2022-07-30T22:55:22.109Z,8.10
2022-07-30T22:57:50.083Z,8.43
2022-07-30T23:00:27.434Z,9.07
2022-07-30T23:02:56.697Z,8.33
2022-07-30T23:05:24.255Z,8.43
2022-07-30T23:07:51.681Z,7.83
2022-07-30T23:10:21.236Z,9.10
2022-07-30T23:12:51.922Z,9.07
2022-07-30T23:15:20.013Z,7.93
2022-07-30T23:17:47.861Z,8.43
2022-07-30T23:20:17.699Z,7.97
2022-07-30T23:22:44.726Z,8.47
2022-07-30T23:25:13.374Z,9.53
2022-07-30T23:27:41.796Z,9.10
2022-07-30T23:30:10.984Z,7.53
2022-07-30T23:32:39.979Z,7.70
2022-07-30T23:35:09.041Z,8.63
2022-07-30T23:37:47.640Z,8.70
2022-07-30T23:40:16.726Z,7.87
2022-07-30T23:42:43.722Z,7.40
2022-07-30T23:45:11.266Z,7.97
2022-07-30T23:48:01.842Z,8.70
2022-07-30T23:50:25.598Z,7.57
2022-07-30T23:52:52.663Z,7.33
2022-07-30T23:55:19.702Z,7.83
2022-07-30T23:57:46.691Z,8.20
